Time;durP1;ratioP1;P1;durP2;ratioP2;P2;SDS_P1;SDS_P2;PMS_P1;PMS_P2;Temp;Humidity;BMP_temperature;BMP_pressure;BME280_temperature;BME280_humidity;BME280_pressure;Samples;Min_cycle;Max_cycle;Signal;HPM_P1;HPM_P2
2022/09/23 00:01:45;;;;;;;7.53;5.80;;;16.50;87.20;;;;;;1924708;74;21072;-59
2022/09/23 00:04:14;;;;;;;7.80;5.75;;;16.50;87.50;;;;;;1924647;74;21523;-59
2022/09/23 00:06:44;;;;;;;9.55;5.90;;;16.40;87.50;;;;;;1924741;74;21015;-59
2022/09/23 00:09:13;;;;;;;7.05;5.35;;;16.50;87.30;;;;;;1924632;74;21019;-59
2022/09/23 00:11:43;;;;;;;12.20;5.72;;;16.40;87.20;;;;;;1924705;74;21015;-59
2022/09/23 00:14:12;;;;;;;11.53;5.80;;;16.40;87.20;;;;;;1924548;74;21066;-59
2022/09/23 00:16:41;;;;;;;9.35;5.45;;;16.40;87.40;;;;;;1924713;74;21551;-59
2022/09/23 00:19:11;;;;;;;12.98;5.97;;;16.40;87.50;;;;;;1924584;74;21034;-59
2022/09/23 00:21:41;;;;;;;7.87;6.60;;;16.50;87.60;;;;;;1924559;74;21010;-59
2022/09/23 00:24:10;;;;;;;9.05;6.20;;;16.50;87.40;;;;;;1924642;74;21300;-59
2022/09/23 00:26:39;;;;;;;8.88;6.37;;;16.50;87.20;;;;;;1924700;74;21019;-59
2022/09/23 00:29:08;;;;;;;9.35;6.72;;;16.40;87.30;;;;;;1924520;74;21096;-59
2022/09/23 00:31:38;;;;;;;8.65;5.90;;;16.30;87.50;;;;;;1922250;74;21092;-59
2022/09/23 00:34:08;;;;;;;10.80;6.83;;;16.30;88.00;;;;;;1905409;75;21069;-59
2022/09/23 00:36:39;;;;;;;10.40;6.80;;;16.30;88.20;;;;;;1905513;75;21402;-59
2022/09/23 00:39:08;;;;;;;11.33;7.08;;;16.30;88.30;;;;;;1905299;75;20995;-59
2022/09/23 00:41:38;;;;;;;11.35;7.25;;;16.30;88.60;;;;;;1905404;75;21118;-59
2022/09/23 00:44:42;;;;;;;12.18;7.42;;;16.30;88.70;;;;;;1905223;75;21015;-59
2022/09/23 00:47:25;;;;;;;12.15;7.95;;;16.30;88.80;;;;;;1905166;74;21152;-59
2022/09/23 00:50:00;;;;;;;11.88;9.00;;;16.30;88.80;;;;;;1905255;75;21015;-59
2022/09/23 00:52:30;;;;;;;;;;;16.20;88.80;;;;;;1908033;75;21047;-59
2022/09/23 00:55:01;;;;;;;11.65;7.70;;;16.00;89.00;;;;;;1905280;74;20102;-59
2022/09/23 00:57:31;;;;;;;15.98;8.78;;;16.00;88.90;;;;;;1905199;75;21004;-59
2022/09/23 01:00:00;;;;;;;9.53;7.47;;;16.00;89.20;;;;;;1905291;74;21043;-59
2022/09/23 01:02:30;;;;;;;14.83;8.78;;;16.00;89.50;;;;;;1905144;75;21093;-59
2022/09/23 01:05:01;;;;;;;9.88;7.12;;;16.10;89.70;;;;;;1905305;75;21024;-59
2022/09/23 01:07:30;;;;;;;11.63;7.85;;;16.10;89.80;;;;;;1905244;75;21085;-59
2022/09/23 01:10:01;;;;;;;13.10;7.85;;;16.20;89.90;;;;;;1905374;75;21089;-59
2022/09/23 01:12:51;;;;;;;11.73;8.90;;;16.30;90.00;;;;;;1905266;75;21152;-59
2022/09/23 01:15:23;;;;;;;10.95;8.28;;;16.30;90.00;;;;;;1904894;74;21020;-59
2022/09/23 01:18:13;;;;;;;12.90;7.50;;;16.30;89.90;;;;;;1904407;74;21035;-59
2022/09/23 01:20:47;;;;;;;13.72;7.95;;;16.20;89.70;;;;;;1905110;74;21020;-59
2022/09/23 01:23:28;;;;;;;15.53;8.55;;;16.30;90.00;;;;;;1904983;74;21109;-59
2022/09/23 01:26:25;;;;;;;13.83;8.78;;;16.30;90.00;;;;;;1905407;75;21527;-59
2022/09/23 01:29:14;;;;;;;14.40;9.30;;;16.20;89.90;;;;;;1905203;75;21083;-59
2022/09/23 01:31:54;;;;;;;15.03;8.68;;;16.20;90.00;;;;;;1904664;74;21015;-59
2022/09/23 01:34:35;;;;;;;12.88;9.83;;;16.20;90.00;;;;;;1876391;74;21073;-59
2022/09/23 01:37:28;;;;;;;21.05;9.90;;;16.10;90.10;;;;;;1905255;75;21185;-59
2022/09/23 01:40:17;;;;;;;14.87;9.90;;;16.10;90.10;;;;;;1905271;75;21085;-59
2022/09/23 01:43:07;;;;;;;12.73;8.55;;;16.00;90.10;;;;;;1905321;75;21097;-57
2022/09/23 01:45:47;;;;;;;13.00;9.43;;;16.00;90.20;;;;;;1867765;74;21027;-57
2022/09/23 01:48:25;;;;;;;16.30;10.40;;;16.00;90.20;;;;;;1905315;75;21090;-57
2022/09/23 01:51:02;;;;;;;19.87;10.55;;;16.00;90.20;;;;;;1900714;75;21525;-57
2022/09/23 01:53:58;;;;;;;15.13;11.45;;;15.90;90.30;;;;;;1867727;76;21123;-57
2022/09/23 01:56:36;;;;;;;15.35;10.15;;;15.90;90.30;;;;;;1905291;75;21048;-57
2022/09/23 01:59:14;;;;;;;15.35;8.63;;;15.90;90.20;;;;;;1905136;74;21012;-57
2022/09/23 02:01:51;;;;;;;13.83;9.50;;;15.90;90.30;;;;;;1905464;74;21449;-57
2022/09/23 02:04:29;;;;;;;11.83;8.70;;;15.90;90.50;;;;;;1905250;75;21020;-57
2022/09/23 02:07:04;;;;;;;13.00;9.60;;;15.90;90.60;;;;;;1905239;75;21171;-58
2022/09/23 02:09:36;;;;;;;14.03;9.33;;;16.00;90.60;;;;;;1905230;74;21566;-58
2022/09/23 02:12:07;;;;;;;16.35;11.55;;;16.00;90.60;;;;;;1905332;75;21019;-58
2022/09/23 02:14:45;;;;;;;13.35;9.15;;;16.00;90.80;;;;;;1905439;75;21015;-58
2022/09/23 02:17:17;;;;;;;15.13;9.68;;;16.10;90.70;;;;;;1905215;75;20996;-58
2022/09/23 02:19:49;;;;;;;14.50;9.78;;;16.10;90.70;;;;;;1905162;74;21497;-58
2022/09/23 02:22:26;;;;;;;11.97;9.38;;;16.10;90.70;;;;;;1905248;74;21109;-58
2022/09/23 02:24:57;;;;;;;12.80;9.43;;;16.10;90.80;;;;;;1890644;74;21476;-58
2022/09/23 02:27:41;;;;;;;16.30;10.35;;;16.10;90.80;;;;;;1905292;75;21081;-58
2022/09/23 02:30:19;;;;;;;13.50;10.32;;;16.10;90.90;;;;;;1864441;76;21080;-58
2022/09/23 02:33:10;;;;;;;13.45;10.03;;;16.10;90.80;;;;;;1908582;74;21140;-58
2022/09/23 02:35:43;;;;;;;15.13;11.40;;;16.00;90.80;;;;;;1924633;74;21031;-58
2022/09/23 02:38:33;;;;;;;15.65;9.43;;;16.00;90.80;;;;;;1924193;74;21127;-58
2022/09/23 02:41:17;;;;;;;15.08;10.23;;;15.90;90.80;;;;;;1924656;74;21050;-58
2022/09/23 02:44:04;;;;;;;15.03;9.93;;;15.90;90.80;;;;;;1923983;74;21568;-59
2022/09/23 02:46:34;;;;;;;17.02;10.43;;;15.90;90.80;;;;;;1924332;74;21544;-59
2022/09/23 02:49:12;;;;;;;18.25;10.85;;;15.80;90.90;;;;;;1924655;74;21097;-58
2022/09/23 02:51:41;;;;;;;15.35;10.90;;;15.80;91.10;;;;;;1924599;74;21019;-59
2022/09/23 02:54:13;;;;;;;14.95;10.82;;;15.70;91.10;;;;;;1924625;74;21018;-59
2022/09/23 02:56:43;;;;;;;18.32;11.43;;;15.70;91.30;;;;;;1923724;74;21245;-58
2022/09/23 02:59:13;;;;;;;19.42;12.60;;;15.70;91.30;;;;;;1924593;74;21078;-58
2022/09/23 03:01:48;;;;;;;19.73;13.28;;;15.60;91.40;;;;;;1924636;74;21053;-58
2022/09/23 03:04:26;;;;;;;;;;;15.60;91.40;;;;;;1926941;74;21015;-59
2022/09/23 03:07:10;;;;;;;17.75;12.07;;;15.60;92.00;;;;;;1923571;74;20108;-59
2022/09/23 03:09:38;;;;;;;15.53;11.53;;;15.40;91.90;;;;;;1886408;76;21045;-59
2022/09/23 03:12:33;;;;;;;22.73;12.20;;;15.30;92.10;;;;;;1877789;76;21049;-59
2022/09/23 03:15:21;;;;;;;17.00;11.95;;;15.30;92.10;;;;;;1845095;76;21018;-58
2022/09/23 03:18:05;;;;;;;17.67;11.83;;;15.20;92.30;;;;;;1861745;76;21051;-59
2022/09/23 03:20:39;;;;;;;16.45;11.78;;;15.20;92.30;;;;;;1877653;76;21050;-59
2022/09/23 03:23:12;;;;;;;15.45;9.35;;;15.20;92.70;;;;;;1856845;76;21018;-59
2022/09/23 03:25:44;;;;;;;13.40;8.90;;;15.10;92.60;;;;;;1878055;76;21081;-59
2022/09/23 03:28:16;;;;;;;11.65;8.65;;;15.10;92.70;;;;;;1877875;76;21019;-59
2022/09/23 03:30:46;;;;;;;10.80;8.63;;;15.10;92.70;;;;;;1878011;76;21023;-59
2022/09/23 03:33:16;;;;;;;13.65;9.95;;;15.00;93.00;;;;;;1876834;76;21121;-59
2022/09/23 03:38:20;;;;;;;14.30;11.05;;;15.00;92.90;;;;;;1843160;76;21050;-59
2022/09/23 03:40:50;;;;;;;17.17;12.03;;;15.00;93.10;;;;;;1924289;74;21072;-59
2022/09/23 03:43:19;;;;;;;21.55;12.80;;;15.00;92.70;;;;;;1878170;76;21022;-59
2022/09/23 03:45:49;;;;;;;18.95;11.88;;;15.00;93.00;;;;;;1924292;74;21060;-59
2022/09/23 03:48:20;;;;;;;19.23;11.93;;;15.00;92.70;;;;;;1878229;76;21010;-59
2022/09/23 03:50:49;;;;;;;15.10;11.18;;;15.00;92.80;;;;;;1924369;74;21034;-59
2022/09/23 03:53:19;;;;;;;16.17;11.33;;;15.10;92.60;;;;;;1878303;76;21026;-59
2022/09/23 03:55:49;;;;;;;15.23;10.88;;;15.10;92.60;;;;;;1924392;74;21034;-59
2022/09/23 03:58:18;;;;;;;15.50;12.10;;;15.20;92.80;;;;;;1878212;76;20990;-59
2022/09/23 04:00:48;;;;;;;14.83;10.90;;;15.30;92.80;;;;;;1924395;74;21022;-59
2022/09/23 04:03:18;;;;;;;15.78;11.12;;;15.40;92.70;;;;;;1878133;76;21158;-59
2022/09/23 04:05:48;;;;;;;14.87;11.35;;;15.40;92.70;;;;;;1924612;74;21026;-59
2022/09/23 04:08:17;;;;;;;15.35;10.75;;;15.50;92.80;;;;;;1878296;76;21437;-59
2022/09/23 04:10:47;;;;;;;20.60;11.65;;;15.50;92.60;;;;;;1924230;74;21072;-59
2022/09/23 04:13:16;;;;;;;15.43;10.85;;;15.50;92.70;;;;;;1878152;76;21435;-59
2022/09/23 04:15:47;;;;;;;18.50;11.60;;;15.50;92.80;;;;;;1924264;74;21046;-59
2022/09/23 04:18:16;;;;;;;17.25;11.85;;;15.40;92.60;;;;;;1878431;76;21476;-59
2022/09/23 04:20:45;;;;;;;14.20;10.23;;;15.40;92.70;;;;;;1924284;73;21147;-59
2022/09/23 04:23:15;;;;;;;12.18;10.58;;;15.40;92.70;;;;;;1878122;76;21097;-59
2022/09/23 04:25:48;;;;;;;12.93;10.13;;;15.50;92.80;;;;;;1924251;74;21011;-59
2022/09/23 04:28:17;;;;;;;12.98;11.57;;;15.60;92.80;;;;;;1878302;76;21006;-58
2022/09/23 04:30:47;;;;;;;13.60;9.98;;;15.70;92.90;;;;;;1924247;74;20998;-59
2022/09/23 04:33:17;;;;;;;12.80;10.25;;;15.70;92.80;;;;;;1845149;78;21029;-59
2022/09/23 04:35:49;;;;;;;15.55;10.38;;;15.80;92.80;;;;;;1917844;74;21043;-59
2022/09/23 04:38:19;;;;;;;13.48;9.63;;;15.80;92.70;;;;;;1868697;76;21010;-59
2022/09/23 04:40:49;;;;;;;11.30;8.53;;;15.90;92.80;;;;;;1905372;75;21023;-59
2022/09/23 04:43:21;;;;;;;13.95;9.65;;;15.90;92.70;;;;;;1905217;75;21003;-58
2022/09/23 04:45:59;;;;;;;11.20;9.05;;;15.90;92.70;;;;;;1905178;74;21023;-58
2022/09/23 04:48:28;;;;;;;11.88;8.98;;;15.90;92.70;;;;;;1905252;75;21015;-59
2022/09/23 04:51:09;;;;;;;12.88;9.18;;;15.90;92.50;;;;;;1905254;74;21117;-59
2022/09/23 04:53:40;;;;;;;12.15;9.65;;;15.80;92.50;;;;;;1905384;75;21019;-59
2022/09/23 04:56:11;;;;;;;14.23;9.68;;;15.80;92.50;;;;;;1905397;75;21082;-59
2022/09/23 04:58:41;;;;;;;11.63;9.85;;;15.80;92.50;;;;;;1905331;74;20979;-59
2022/09/23 05:01:13;;;;;;;12.82;9.75;;;15.80;92.60;;;;;;1905229;75;21016;-59
2022/09/23 05:03:43;;;;;;;13.68;9.80;;;15.70;92.60;;;;;;1905360;75;21073;-59
2022/09/23 05:06:14;;;;;;;17.25;11.70;;;15.70;92.50;;;;;;1905252;75;20999;-59
2022/09/23 05:08:48;;;;;;;17.70;11.68;;;15.70;92.70;;;;;;1868882;77;21160;-59
2022/09/23 05:11:18;;;;;;;13.65;10.68;;;15.60;92.60;;;;;;1905346;75;21035;-59
2022/09/23 05:13:52;;;;;;;16.17;11.33;;;15.60;92.70;;;;;;1905329;75;21004;-59
2022/09/23 05:16:22;;;;;;;18.60;11.43;;;15.60;92.80;;;;;;1905220;75;21027;-59
2022/09/23 05:18:52;;;;;;;18.12;13.35;;;15.50;92.90;;;;;;1868888;77;21002;-59
2022/09/23 05:21:23;;;;;;;19.07;12.45;;;15.50;93.00;;;;;;1905204;75;21019;-59
2022/09/23 05:23:54;;;;;;;14.35;11.00;;;15.50;93.00;;;;;;1868729;77;21093;-59
2022/09/23 05:26:25;;;;;;;11.25;8.63;;;15.40;92.90;;;;;;1905185;75;21027;-59
2022/09/23 05:28:55;;;;;;;11.80;9.00;;;15.40;93.00;;;;;;1905224;75;20999;-59
2022/09/23 05:31:26;;;;;;;14.58;9.38;;;15.30;92.90;;;;;;1905125;75;21085;-59
2022/09/23 05:34:00;;;;;;;11.38;8.50;;;15.30;92.90;;;;;;1905240;75;21079;-59
2022/09/23 05:36:31;;;;;;;11.90;8.93;;;15.30;93.00;;;;;;1923946;74;21047;-59
2022/09/23 05:39:01;;;;;;;13.32;9.45;;;15.30;93.00;;;;;;1924742;74;21092;-59
2022/09/23 05:41:30;;;;;;;13.22;9.33;;;15.20;93.20;;;;;;1924756;74;20999;-59
2022/09/23 05:43:59;;;;;;;11.75;8.68;;;15.20;93.20;;;;;;1924613;74;21046;-59
2022/09/23 05:46:30;;;;;;;14.68;10.30;;;15.20;93.10;;;;;;1924647;74;20986;-59
2022/09/23 05:49:01;;;;;;;16.23;9.80;;;15.20;93.30;;;;;;1924598;74;21011;-59
2022/09/23 05:51:31;;;;;;;13.13;9.75;;;15.20;93.10;;;;;;1924396;74;21022;-59
2022/09/23 05:54:02;;;;;;;14.85;9.35;;;15.10;93.00;;;;;;1924743;74;21101;-59
2022/09/23 05:56:33;;;;;;;11.78;8.23;;;15.10;93.10;;;;;;1924571;74;21003;-59
2022/09/23 05:59:02;;;;;;;9.13;7.85;;;15.10;93.10;;;;;;1924594;74;21018;-59
2022/09/23 06:01:37;;;;;;;14.43;9.23;;;15.10;93.10;;;;;;1924833;74;21019;-59
2022/09/23 06:04:07;;;;;;;11.15;9.78;;;15.10;93.00;;;;;;1924772;74;21131;-59
2022/09/23 06:06:38;;;;;;;10.72;9.63;;;15.10;93.10;;;;;;1924548;74;21143;-59
2022/09/23 06:09:10;;;;;;;11.05;8.95;;;15.10;93.00;;;;;;1924579;74;21015;-59
2022/09/23 06:11:40;;;;;;;11.15;9.80;;;15.20;93.00;;;;;;1924638;74;21050;-59
2022/09/23 06:14:13;;;;;;;11.38;8.20;;;15.20;93.10;;;;;;1924627;74;21072;-59
2022/09/23 06:16:43;;;;;;;12.23;8.38;;;15.20;93.00;;;;;;1924697;74;21038;-59
2022/09/23 06:19:13;;;;;;;11.00;9.75;;;15.20;92.90;;;;;;1924611;74;21076;-59
2022/09/23 06:21:42;;;;;;;9.58;7.87;;;15.20;92.90;;;;;;1924674;74;21022;-59
2022/09/23 06:24:11;;;;;;;10.60;9.05;;;15.30;93.00;;;;;;1924677;74;21018;-59
2022/09/23 06:26:41;;;;;;;10.03;8.60;;;15.20;92.90;;;;;;1924575;74;21100;-59
2022/09/23 06:29:11;;;;;;;14.83;10.55;;;15.20;93.00;;;;;;1924731;74;21073;-59
2022/09/23 06:31:42;;;;;;;12.13;8.88;;;15.20;93.20;;;;;;1924576;74;21046;-59
2022/09/23 06:34:12;;;;;;;11.20;8.25;;;15.20;93.30;;;;;;1924637;74;21022;-59
2022/09/23 06:36:42;;;;;;;13.83;10.10;;;15.10;93.40;;;;;;1909438;74;21059;-59
2022/09/23 06:39:12;;;;;;;11.12;9.18;;;15.10;93.20;;;;;;1905317;75;21504;-59
2022/09/23 06:41:42;;;;;;;10.23;8.88;;;15.10;93.40;;;;;;1905218;75;21073;-59
2022/09/23 06:44:15;;;;;;;10.20;9.20;;;15.10;93.40;;;;;;1905207;75;21036;-59
2022/09/23 06:46:44;;;;;;;9.23;7.65;;;15.10;93.40;;;;;;1905328;75;20984;-59
2022/09/23 06:49:14;;;;;;;10.38;9.13;;;15.10;93.60;;;;;;1905207;75;21051;-59
2022/09/23 06:51:43;;;;;;;10.25;9.15;;;15.10;93.60;;;;;;1905115;75;21144;-59
2022/09/23 06:54:12;;;;;;;10.68;9.00;;;15.00;93.50;;;;;;1905284;75;20995;-59
2022/09/23 06:56:48;;;;;;;12.15;10.32;;;15.00;93.60;;;;;;1905215;75;21079;-59
2022/09/23 06:59:15;;;;;;;14.47;9.48;;;15.00;93.60;;;;;;1866831;77;21092;-59
2022/09/23 07:01:46;;;;;;;11.48;10.28;;;15.00;93.60;;;;;;1905362;75;21000;-59
2022/09/23 07:04:15;;;;;;;12.85;8.75;;;15.00;93.60;;;;;;1868798;77;21160;-59
2022/09/23 07:06:45;;;;;;;14.53;9.33;;;15.00;93.70;;;;;;1905267;75;21484;-59
2022/09/23 07:09:14;;;;;;;9.60;8.38;;;15.10;93.60;;;;;;1905216;75;21015;-59
2022/09/23 07:11:43;;;;;;;12.23;9.58;;;15.10;93.80;;;;;;1905164;75;21352;-59
2022/09/23 07:14:13;;;;;;;11.75;9.55;;;15.10;93.60;;;;;;1905310;75;21073;-59
2022/09/23 07:16:42;;;;;;;11.78;10.25;;;15.10;93.80;;;;;;1905196;74;21057;-59
2022/09/23 07:19:11;;;;;;;14.43;10.53;;;15.10;93.80;;;;;;1905170;75;21028;-59
2022/09/23 07:21:41;;;;;;;18.37;12.53;;;15.10;93.80;;;;;;1868703;77;21058;-59
2022/09/23 07:24:11;;;;;;;13.22;10.45;;;15.10;93.70;;;;;;1905196;75;21028;-59
2022/09/23 07:26:39;;;;;;;18.77;11.45;;;15.20;93.70;;;;;;1868849;77;21018;-59
2022/09/23 07:29:11;;;;;;;13.05;9.63;;;15.20;93.70;;;;;;1905245;75;21736;-59
2022/09/23 07:31:41;;;;;;;13.03;10.63;;;15.30;93.60;;;;;;1905228;74;21020;-59
2022/09/23 07:34:10;;;;;;;11.10;9.20;;;15.30;93.50;;;;;;1868782;77;21018;-59
2022/09/23 07:36:40;;;;;;;10.50;8.30;;;15.40;93.50;;;;;;1915293;74;21112;-59
2022/09/23 07:39:11;;;;;;;14.78;8.80;;;15.40;93.30;;;;;;1924591;74;21073;-59
2022/09/23 07:41:43;;;;;;;10.08;9.00;;;15.40;93.30;;;;;;1924521;74;21018;-59
2022/09/23 07:44:11;;;;;;;10.00;7.87;;;15.40;93.20;;;;;;1924527;74;21011;-59
2022/09/23 07:46:40;;;;;;;9.70;8.50;;;15.40;93.20;;;;;;1924500;74;21502;-59
2022/09/23 07:49:10;;;;;;;10.00;8.50;;;15.40;93.20;;;;;;1924507;74;21096;-59
2022/09/23 07:51:40;;;;;;;11.43;8.48;;;15.40;93.20;;;;;;1924515;74;21084;-59
2022/09/23 07:54:12;;;;;;;13.90;7.70;;;15.40;93.20;;;;;;1924529;74;21111;-59
2022/09/23 07:56:41;;;;;;;11.83;8.73;;;15.40;93.30;;;;;;1924538;74;20999;-59
2022/09/23 07:59:14;;;;;;;10.82;8.70;;;15.50;93.20;;;;;;1924666;74;21021;-59
2022/09/23 08:01:45;;;;;;;10.00;8.10;;;15.50;93.30;;;;;;1924559;74;21085;-59
2022/09/23 08:04:19;;;;;;;9.75;7.25;;;15.60;93.20;;;;;;1924574;74;21028;-59
2022/09/23 08:06:52;;;;;;;13.38;8.35;;;15.70;93.30;;;;;;1924679;74;21035;-59
2022/09/23 08:09:24;;;;;;;11.48;8.35;;;15.80;93.10;;;;;;1924744;74;21030;-59
2022/09/23 08:11:54;;;;;;;10.23;7.28;;;15.80;92.80;;;;;;1924664;74;21058;-59
2022/09/23 08:14:23;;;;;;;9.73;6.85;;;15.80;92.70;;;;;;1924520;74;21092;-59
2022/09/23 08:16:53;;;;;;;11.03;6.95;;;15.90;92.70;;;;;;1924529;74;21026;-59
2022/09/23 08:19:22;;;;;;;11.78;7.10;;;15.90;92.60;;;;;;1924552;74;20999;-59
2022/09/23 08:21:53;;;;;;;8.53;5.75;;;16.00;92.50;;;;;;1924659;74;21081;-60
2022/09/23 08:24:23;;;;;;;10.25;6.67;;;16.00;92.40;;;;;;1923097;74;21034;-58
2022/09/23 08:26:53;;;;;;;9.48;6.85;;;16.00;92.60;;;;;;1923940;74;21042;-57
2022/09/23 08:29:24;;;;;;;16.52;7.20;;;16.10;92.30;;;;;;1924160;74;21077;-57
2022/09/23 08:31:54;;;;;;;28.38;10.25;;;16.20;92.60;;;;;;1923673;74;21015;-57
2022/09/23 08:34:23;;;;;;;13.58;6.62;;;16.20;92.60;;;;;;1924061;74;20994;-57
2022/09/23 08:36:53;;;;;;;15.20;7.17;;;16.30;92.30;;;;;;1923854;74;21129;-59
2022/09/23 08:39:22;;;;;;;9.65;6.45;;;16.30;92.30;;;;;;1923708;74;21080;-58
2022/09/23 08:41:57;;;;;;;18.37;7.58;;;16.40;92.30;;;;;;1923892;74;21085;-57
2022/09/23 08:44:52;;;;;;;12.93;5.87;;;16.40;92.30;;;;;;1924099;74;21070;-57
2022/09/23 08:47:24;;;;;;;12.10;6.43;;;16.40;92.00;;;;;;1924228;74;21084;-56
2022/09/23 08:50:02;;;;;;;10.00;4.83;;;16.40;91.70;;;;;;1924191;74;21030;-55
2022/09/23 08:52:52;;;;;;;5.97;4.20;;;16.40;91.80;;;;;;1923944;74;20999;-56
2022/09/23 08:55:36;;;;;;;8.03;4.85;;;16.30;91.70;;;;;;1923859;74;21522;-57
2022/09/23 08:58:32;;;;;;;4.85;4.15;;;16.30;91.70;;;;;;1924089;74;21051;-57
2022/09/23 09:01:16;;;;;;;6.85;4.53;;;16.40;91.60;;;;;;1924106;74;21084;-57
2022/09/23 09:03:57;;;;;;;10.78;4.65;;;16.40;91.60;;;;;;1923222;74;21125;-57
2022/09/23 09:06:38;;;;;;;10.55;3.92;;;16.40;91.40;;;;;;1923971;74;21023;-58
2022/09/23 09:09:13;;;;;;;12.00;6.50;;;16.50;91.50;;;;;;1923780;74;21046;-57
2022/09/23 09:11:45;;;;;;;4.83;4.30;;;16.50;90.70;;;;;;1920617;74;21442;-57
2022/09/23 09:14:31;;;;;;;6.80;4.95;;;16.50;90.90;;;;;;1923966;74;21473;-54
2022/09/23 09:17:09;;;;;;;8.35;4.75;;;16.60;91.00;;;;;;1923832;74;21147;-58
2022/09/23 09:19:46;;;;;;;5.60;4.78;;;16.70;91.00;;;;;;1923699;74;21069;-57
2022/09/23 09:22:18;;;;;;;7.10;3.87;;;16.80;91.20;;;;;;1922788;74;21509;-58
2022/09/23 09:24:49;;;;;;;4.92;4.33;;;16.90;91.10;;;;;;1923862;74;21054;-57
2022/09/23 09:27:19;;;;;;;6.05;4.30;;;16.90;90.50;;;;;;1923904;74;21132;-57
2022/09/23 09:29:52;;;;;;;7.67;5.00;;;16.90;90.60;;;;;;1924093;74;21535;-57
2022/09/23 09:32:46;;;;;;;5.58;3.75;;;16.90;90.70;;;;;;1923990;74;21594;-58
2022/09/23 09:35:27;;;;;;;4.67;4.22;;;16.80;90.20;;;;;;1924025;74;21042;-57
2022/09/23 09:37:57;;;;;;;4.65;4.10;;;16.80;90.10;;;;;;1913674;74;21086;-57
2022/09/23 09:40:27;;;;;;;4.22;3.75;;;16.60;89.50;;;;;;1904787;75;21083;-58
2022/09/23 09:42:56;;;;;;;4.87;4.22;;;16.50;89.20;;;;;;1904706;75;21071;-57
2022/09/23 09:45:47;;;;;;;3.95;3.30;;;16.40;89.80;;;;;;1904598;75;21071;-58
2022/09/23 09:48:19;;;;;;;5.47;4.17;;;16.30;89.10;;;;;;1904049;74;21019;-56
2022/09/23 09:50:50;;;;;;;9.25;5.65;;;16.30;89.60;;;;;;1904540;75;21078;-56
2022/09/23 09:53:28;;;;;;;9.03;4.72;;;16.20;90.10;;;;;;1904541;75;21085;-58
2022/09/23 09:56:03;;;;;;;6.83;4.58;;;16.20;90.10;;;;;;1904660;74;21089;-57
2022/09/23 09:58:53;;;;;;;9.50;5.20;;;16.20;89.20;;;;;;1904819;75;21105;-57
2022/09/23 10:01:25;;;;;;;13.10;8.00;;;16.20;90.00;;;;;;1903877;75;21045;-58
2022/09/23 10:03:56;;;;;;;5.75;3.90;;;16.40;89.70;;;;;;1901392;75;21102;-58
2022/09/23 10:06:27;;;;;;;5.78;4.55;;;16.50;87.20;;;;;;1901565;75;21142;-58
2022/09/23 10:09:21;;;;;;;3.65;3.22;;;16.70;86.60;;;;;;1900860;75;21033;-58
2022/09/23 10:12:17;;;;;;;6.30;4.55;;;16.70;86.00;;;;;;1901571;75;21036;-57
2022/09/23 10:14:51;;;;;;;15.00;8.20;;;16.80;86.30;;;;;;1901493;75;21021;-58
2022/09/23 10:17:25;;;;;;;8.78;5.17;;;16.90;83.20;;;;;;1901575;75;21032;-58
2022/09/23 11:25:30;;;;;;;6.00;2.10;;;17.90;72.60;;;;;;1973826;73;26134;-58
2022/09/23 11:28:19;;;;;;;2.90;2.50;;;17.90;74.00;;;;;;1948314;73;21038;-57
2022/09/23 11:31:13;;;;;;;3.47;2.42;;;18.00;73.00;;;;;;1948641;73;21084;-57
2022/09/23 11:33:45;;;;;;;4.43;2.60;;;18.00;73.40;;;;;;1947558;73;21579;-56
2022/09/23 11:36:32;;;;;;;4.62;2.70;;;18.00;72.90;;;;;;1949061;73;21460;-58
2022/09/23 11:39:04;;;;;;;5.05;2.40;;;17.90;73.80;;;;;;1949090;73;21089;-57
2022/09/23 11:41:38;;;;;;;6.47;2.65;;;18.00;73.20;;;;;;1947151;73;21181;-58
2022/09/23 11:44:13;;;;;;;4.27;2.37;;;18.10;73.30;;;;;;1949282;73;21014;-58
2022/09/23 11:46:54;;;;;;;4.83;2.95;;;18.10;71.80;;;;;;1948525;73;21015;-58
2022/09/23 11:49:38;;;;;;;9.83;5.28;;;18.10;70.70;;;;;;1949118;73;21015;-57
2022/09/23 11:52:09;;;;;;;6.42;4.33;;;18.00;71.10;;;;;;1949283;73;21088;-56
2022/09/23 11:54:53;;;;;;;4.50;3.33;;;18.00;71.10;;;;;;1949121;73;21422;-57
2022/09/23 11:57:43;;;;;;;5.03;2.80;;;17.90;70.50;;;;;;1948892;73;21538;-57
2022/09/23 12:00:18;;;;;;;8.68;2.87;;;17.90;71.10;;;;;;1911293;75;21035;-57
2022/09/23 12:03:17;;;;;;;2.22;2.02;;;17.90;71.30;;;;;;1874845;76;21039;-58
2022/09/23 12:05:49;;;;;;;6.90;2.47;;;17.80;71.60;;;;;;1874931;76;21082;-57
2022/09/23 12:08:40;;;;;;;2.75;2.47;;;17.80;72.10;;;;;;1948970;73;21386;-57
2022/09/23 12:11:23;;;;;;;3.67;2.10;;;17.80;72.40;;;;;;1947471;73;20999;-57
2022/09/23 12:14:15;;;;;;;7.05;3.95;;;17.80;72.00;;;;;;1948735;73;20999;-57
2022/09/23 12:17:03;;;;;;;5.53;3.00;;;17.90;71.10;;;;;;1948886;73;21168;-58
2022/09/23 12:19:38;;;;;;;3.60;2.42;;;18.00;72.10;;;;;;1949053;73;21039;-57
2022/09/23 12:22:10;;;;;;;2.47;2.27;;;18.10;71.60;;;;;;1948175;73;21484;-57
2022/09/23 12:27:35;;;;;;;5.20;3.20;;;18.10;71.40;;;;;;1919329;74;21071;-57
2022/09/23 12:30:07;;;;;;;3.98;3.00;;;18.10;71.30;;;;;;1919286;75;21096;-57
2022/09/23 12:32:37;;;;;;;5.28;2.80;;;18.00;72.10;;;;;;1912331;74;21156;-57
2022/09/23 12:35:08;;;;;;;4.25;2.95;;;18.00;72.40;;;;;;1919053;75;21120;-57
2022/09/23 12:37:39;;;;;;;3.10;2.58;;;18.00;72.50;;;;;;1916296;72;21047;-57
2022/09/23 12:40:11;;;;;;;4.40;2.77;;;17.90;72.80;;;;;;1918725;75;21023;-56
2022/09/23 12:42:45;;;;;;;3.60;3.30;;;17.90;72.90;;;;;;1917494;72;21023;-57
2022/09/23 12:45:21;;;;;;;4.62;3.02;;;17.90;73.40;;;;;;1918760;75;21121;-57
2022/09/23 12:47:50;;;;;;;4.45;3.65;;;17.90;73.00;;;;;;1911682;73;21113;-56
2022/09/23 12:50:54;;;;;;;15.45;5.58;;;17.90;73.30;;;;;;1918667;75;21003;-57
2022/09/23 12:53:38;;;;;;;4.35;3.25;;;18.00;73.20;;;;;;1860753;76;21134;-57
2022/09/23 12:56:18;;;;;;;3.80;3.12;;;18.10;72.90;;;;;;1914114;75;21411;-57
2022/09/23 12:58:50;;;;;;;4.47;3.17;;;18.20;72.40;;;;;;1918473;75;21036;-57
2022/09/23 13:01:22;;;;;;;4.03;3.15;;;18.10;72.00;;;;;;1918754;75;21473;-57
2022/09/23 13:06:43;;;;;;;6.12;3.20;;;18.10;72.30;;;;;;1918699;74;21047;-57
2022/09/23 13:09:18;;;;;;;5.22;3.25;;;18.10;72.10;;;;;;1917779;74;21027;-56
2022/09/23 13:11:49;;;;;;;3.42;3.12;;;18.10;72.10;;;;;;1918701;74;21529;-58
2022/09/23 13:14:21;;;;;;;3.45;2.90;;;18.10;72.50;;;;;;1918893;75;21023;-57
2022/09/23 13:16:51;;;;;;;4.60;3.33;;;18.00;72.80;;;;;;1918751;75;21019;-57
2022/09/23 13:19:30;;;;;;;4.90;2.75;;;18.00;73.00;;;;;;1918758;74;21134;-57
2022/09/23 13:22:07;;;;;;;6.78;3.27;;;18.00;73.20;;;;;;1918837;75;21030;-57
2022/09/23 13:24:44;;;;;;;2.70;2.47;;;18.00;72.80;;;;;;1918529;75;21086;-58
2022/09/23 13:27:28;;;;;;;4.37;2.72;;;17.90;73.00;;;;;;1910430;74;21055;-57
2022/09/23 13:30:08;;;;;;;10.32;7.33;;;18.00;73.10;;;;;;1906933;75;21008;-57
2022/09/23 13:33:08;;;;;;;4.78;3.15;;;17.90;73.40;;;;;;1898170;74;21036;-59
2022/09/23 13:35:39;;;;;;;6.78;5.05;;;17.90;73.40;;;;;;1906401;74;21063;-57
2022/09/23 13:38:26;;;;;;;7.37;4.83;;;18.00;73.50;;;;;;1907096;74;20988;-57
2022/09/23 13:40:58;;;;;;;4.72;2.87;;;18.10;73.50;;;;;;1906974;74;21152;-58
2022/09/23 13:43:39;;;;;;;3.72;3.30;;;18.20;73.70;;;;;;1907097;75;21508;-58
2022/09/23 13:46:14;;;;;;;8.63;3.67;;;18.30;73.40;;;;;;1906912;74;21024;-58
2022/09/23 13:48:45;;;;;;;4.42;2.85;;;18.30;74.10;;;;;;1907097;75;21532;-58
2022/09/23 13:51:20;;;;;;;11.63;5.08;;;18.30;73.30;;;;;;1907000;74;21031;-58
2022/09/23 13:53:57;;;;;;;5.22;3.52;;;18.20;73.20;;;;;;1906616;75;21626;-57
2022/09/23 13:56:29;;;;;;;9.15;3.50;;;18.10;73.50;;;;;;1906983;75;21047;-56
2022/09/23 13:59:24;;;;;;;5.15;2.70;;;18.10;73.50;;;;;;1906575;74;21039;-57
2022/09/23 14:02:15;;;;;;;5.10;2.60;;;18.10;73.00;;;;;;1907297;74;21085;-58
2022/09/23 14:04:45;;;;;;;3.37;2.75;;;18.10;73.10;;;;;;1906863;74;21081;-57
2022/09/23 14:07:17;;;;;;;19.95;12.65;;;18.10;73.50;;;;;;1906718;74;21051;-58
2022/09/23 14:09:52;;;;;;;7.25;4.00;;;18.20;73.80;;;;;;1906806;74;21121;-58
2022/09/23 14:12:22;;;;;;;7.62;4.05;;;18.20;74.00;;;;;;1907016;74;21043;-58
2022/09/23 14:14:52;;;;;;;4.65;3.10;;;18.30;73.70;;;;;;1906886;74;21007;-58
2022/09/23 14:17:22;;;;;;;5.17;2.83;;;18.30;73.70;;;;;;1906902;75;21089;-58
2022/09/23 14:19:52;;;;;;;2.95;2.42;;;18.30;73.60;;;;;;1906982;75;21101;-58
2022/09/23 14:22:29;;;;;;;5.90;3.20;;;18.30;73.20;;;;;;1906986;74;20995;-58
2022/09/23 14:24:59;;;;;;;6.62;2.92;;;18.30;73.40;;;;;;1906979;75;21038;-58
2022/09/23 14:27:35;;;;;;;3.50;2.98;;;18.30;73.50;;;;;;1906671;73;21076;-58
2022/09/23 14:30:05;;;;;;;5.03;2.92;;;18.30;73.60;;;;;;1906274;75;20996;-58